sensor_id;sensor_type;location;lat;lon;timestamp;temperature;humidity
70550;DHT22;58101;48.658;2.328;2022-12-18T00:01:32;-2.50;99.90
70550;DHT22;58101;48.658;2.328;2022-12-18T00:03:59;-2.50;99.90
70550;DHT22;58101;48.658;2.328;2022-12-18T00:06:26;-2.50;99.90
70550;DHT22;58101;48.658;2.328;2022-12-18T00:08:53;-2.50;99.90
70550;DHT22;58101;48.658;2.328;2022-12-18T00:11:20;-2.50;99.90
70550;DHT22;58101;48.658;2.328;2022-12-18T00:13:47;-2.60;99.90
70550;DHT22;58101;48.658;2.328;2022-12-18T00:16:15;-2.60;99.90
70550;DHT22;58101;48.658;2.328;2022-12-18T00:18:41;-2.60;99.90
70550;DHT22;58101;48.658;2.328;2022-12-18T00:21:09;-2.70;99.90
70550;DHT22;58101;48.658;2.328;2022-12-18T00:23:36;-2.70;99.90
70550;DHT22;58101;48.658;2.328;2022-12-18T00:26:08;-2.70;99.90
70550;DHT22;58101;48.658;2.328;2022-12-18T00:28:35;-2.70;99.90
70550;DHT22;58101;48.658;2.328;2022-12-18T00:31:05;-2.80;99.90
70550;DHT22;58101;48.658;2.328;2022-12-18T00:33:32;-2.80;99.90
70550;DHT22;58101;48.658;2.328;2022-12-18T00:36:10;-2.80;99.90
70550;DHT22;58101;48.658;2.328;2022-12-18T00:38:36;-2.80;99.90
70550;DHT22;58101;48.658;2.328;2022-12-18T00:41:03;-2.90;99.90
70550;DHT22;58101;48.658;2.328;2022-12-18T00:43:28;-2.90;99.90
70550;DHT22;58101;48.658;2.328;2022-12-18T00:45:54;-2.90;99.90
70550;DHT22;58101;48.658;2.328;2022-12-18T00:48:20;-3.00;99.90
70550;DHT22;58101;48.658;2.328;2022-12-18T00:50:47;-2.90;99.90
70550;DHT22;58101;48.658;2.328;2022-12-18T00:53:12;-3.00;99.90
70550;DHT22;58101;48.658;2.328;2022-12-18T00:55:42;-3.00;99.90
70550;DHT22;58101;48.658;2.328;2022-12-18T00:58:08;-3.00;99.90
70550;DHT22;58101;48.658;2.328;2022-12-18T01:00:34;-3.00;99.90
70550;DHT22;58101;48.658;2.328;2022-12-18T01:03:00;-3.00;99.90
70550;DHT22;58101;48.658;2.328;2022-12-18T01:05:25;-3.10;99.90
70550;DHT22;58101;48.658;2.328;2022-12-18T01:07:51;-3.10;99.90
70550;DHT22;58101;48.658;2.328;2022-12-18T01:10:17;-3.00;99.90
70550;DHT22;58101;48.658;2.328;2022-12-18T01:12:43;-3.10;99.90
70550;DHT22;58101;48.658;2.328;2022-12-18T01:15:09;-3.10;99.90
70550;DHT22;58101;48.658;2.328;2022-12-18T01:17:36;-3.20;99.90
70550;DHT22;58101;48.658;2.328;2022-12-18T01:20:03;-3.20;99.90
70550;DHT22;58101;48.658;2.328;2022-12-18T01:22:29;-3.20;99.90
70550;DHT22;58101;48.658;2.328;2022-12-18T01:24:54;-3.20;99.90
70550;DHT22;58101;48.658;2.328;2022-12-18T01:27:20;-3.20;99.90
70550;DHT22;58101;48.658;2.328;2022-12-18T01:29:46;-3.30;99.90
70550;DHT22;58101;48.658;2.328;2022-12-18T01:32:11;-3.30;99.90
70550;DHT22;58101;48.658;2.328;2022-12-18T01:34:37;-3.30;99.90
70550;DHT22;58101;48.658;2.328;2022-12-18T01:37:04;-3.30;99.90
70550;DHT22;58101;48.658;2.328;2022-12-18T01:39:30;-3.30;99.90
70550;DHT22;58101;48.658;2.328;2022-12-18T01:41:58;-3.30;99.90
70550;DHT22;58101;48.658;2.328;2022-12-18T01:45:01;-3.40;99.90
70550;DHT22;58101;48.658;2.328;2022-12-18T01:47:54;-3.40;99.90
70550;DHT22;58101;48.658;2.328;2022-12-18T01:50:36;-3.40;99.90
70550;DHT22;58101;48.658;2.328;2022-12-18T01:53:18;-3.40;99.90
70550;DHT22;58101;48.658;2.328;2022-12-18T01:55:56;-3.40;99.90
70550;DHT22;58101;48.658;2.328;2022-12-18T01:58:55;-3.40;99.90
70550;DHT22;58101;48.658;2.328;2022-12-18T02:01:22;-3.50;99.90
70550;DHT22;58101;48.658;2.328;2022-12-18T02:03:49;-3.50;99.90
70550;DHT22;58101;48.658;2.328;2022-12-18T02:06:32;-3.50;99.90
70550;DHT22;58101;48.658;2.328;2022-12-18T02:09:14;-3.50;99.90
70550;DHT22;58101;48.658;2.328;2022-12-18T02:17:41;-3.60;99.90
70550;DHT22;58101;48.658;2.328;2022-12-18T02:20:21;-3.60;99.90
70550;DHT22;58101;48.658;2.328;2022-12-18T02:28:25;-3.70;99.90
70550;DHT22;58101;48.658;2.328;2022-12-18T02:30:53;-3.70;99.90
70550;DHT22;58101;48.658;2.328;2022-12-18T02:33:22;-3.70;99.90
70550;DHT22;58101;48.658;2.328;2022-12-18T02:35:50;-3.70;99.90
70550;DHT22;58101;48.658;2.328;2022-12-18T02:38:17;-3.70;99.90
70550;DHT22;58101;48.658;2.328;2022-12-18T02:40:44;-3.70;99.90
70550;DHT22;58101;48.658;2.328;2022-12-18T02:43:14;-3.70;99.90
70550;DHT22;58101;48.658;2.328;2022-12-18T02:46:20;-3.70;99.90
70550;DHT22;58101;48.658;2.328;2022-12-18T02:48:49;-3.80;99.90
70550;DHT22;58101;48.658;2.328;2022-12-18T02:51:29;-3.80;99.90
70550;DHT22;58101;48.658;2.328;2022-12-18T02:57:09;-3.90;99.90
70550;DHT22;58101;48.658;2.328;2022-12-18T02:59:52;-3.80;99.90
70550;DHT22;58101;48.658;2.328;2022-12-18T03:05:02;-3.80;99.90
70550;DHT22;58101;48.658;2.328;2022-12-18T03:10:47;-3.80;99.90
70550;DHT22;58101;48.658;2.328;2022-12-18T03:13:23;-3.80;99.90
70550;DHT22;58101;48.658;2.328;2022-12-18T03:15:53;-3.90;99.90
70550;DHT22;58101;48.658;2.328;2022-12-18T03:18:27;-3.90;99.90
70550;DHT22;58101;48.658;2.328;2022-12-18T03:20:58;-3.90;99.90
70550;DHT22;58101;48.658;2.328;2022-12-18T03:23:29;-3.90;99.90
70550;DHT22;58101;48.658;2.328;2022-12-18T03:26:00;-3.90;99.90
70550;DHT22;58101;48.658;2.328;2022-12-18T03:28:29;-3.90;99.90
70550;DHT22;58101;48.658;2.328;2022-12-18T03:30:57;-3.90;99.90
70550;DHT22;58101;48.658;2.328;2022-12-18T03:33:39;-3.90;99.90
70550;DHT22;58101;48.658;2.328;2022-12-18T03:36:06;-3.90;99.90
70550;DHT22;58101;48.658;2.328;2022-12-18T03:38:32;-4.00;99.90
70550;DHT22;58101;48.658;2.328;2022-12-18T03:41:32;-4.00;99.90
70550;DHT22;58101;48.658;2.328;2022-12-18T03:46:41;-4.00;99.90
70550;DHT22;58101;48.658;2.328;2022-12-18T03:52:01;-4.00;99.90
70550;DHT22;58101;48.658;2.328;2022-12-18T03:54:29;-4.00;99.90
70550;DHT22;58101;48.658;2.328;2022-12-18T03:57:25;-4.00;99.90
70550;DHT22;58101;48.658;2.328;2022-12-18T03:59:54;-4.00;99.90
70550;DHT22;58101;48.658;2.328;2022-12-18T04:02:21;-4.00;99.90
70550;DHT22;58101;48.658;2.328;2022-12-18T04:04:53;-4.00;99.90
70550;DHT22;58101;48.658;2.328;2022-12-18T04:07:20;-4.00;99.90
70550;DHT22;58101;48.658;2.328;2022-12-18T04:09:48;-4.00;99.90
70550;DHT22;58101;48.658;2.328;2022-12-18T04:12:15;-4.00;99.90
70550;DHT22;58101;48.658;2.328;2022-12-18T04:14:40;-3.80;99.90
70550;DHT22;58101;48.658;2.328;2022-12-18T04:17:06;-4.00;99.90
70550;DHT22;58101;48.658;2.328;2022-12-18T04:19:31;-4.00;99.90
70550;DHT22;58101;48.658;2.328;2022-12-18T04:21:57;-4.00;99.90
70550;DHT22;58101;48.658;2.328;2022-12-18T04:24:23;-4.00;99.90
70550;DHT22;58101;48.658;2.328;2022-12-18T04:26:48;-3.90;99.90
70550;DHT22;58101;48.658;2.328;2022-12-18T04:29:14;-3.90;99.90
70550;DHT22;58101;48.658;2.328;2022-12-18T04:31:40;-3.90;99.90
70550;DHT22;58101;48.658;2.328;2022-12-18T04:34:05;-3.90;99.90
70550;DHT22;58101;48.658;2.328;2022-12-18T04:36:31;-3.90;99.90
70550;DHT22;58101;48.658;2.328;2022-12-18T04:38:57;-3.90;99.90
70550;DHT22;58101;48.658;2.328;2022-12-18T04:41:22;-3.90;99.90
70550;DHT22;58101;48.658;2.328;2022-12-18T04:43:48;-3.90;99.90
70550;DHT22;58101;48.658;2.328;2022-12-18T04:46:13;-4.00;99.90
70550;DHT22;58101;48.658;2.328;2022-12-18T04:48:39;-4.00;99.90
70550;DHT22;58101;48.658;2.328;2022-12-18T04:51:06;-4.00;99.90
70550;DHT22;58101;48.658;2.328;2022-12-18T04:53:32;-4.00;99.90
70550;DHT22;58101;48.658;2.328;2022-12-18T04:56:07;-4.00;99.90
70550;DHT22;58101;48.658;2.328;2022-12-18T04:58:33;-4.00;99.90
70550;DHT22;58101;48.658;2.328;2022-12-18T05:01:00;-4.00;99.90
70550;DHT22;58101;48.658;2.328;2022-12-18T05:03:25;-4.00;99.90
70550;DHT22;58101;48.658;2.328;2022-12-18T05:05:51;-4.10;99.90
70550;DHT22;58101;48.658;2.328;2022-12-18T05:08:18;-4.10;99.90
70550;DHT22;58101;48.658;2.328;2022-12-18T05:10:43;-4.10;99.90
70550;DHT22;58101;48.658;2.328;2022-12-18T05:13:09;-4.10;99.90
70550;DHT22;58101;48.658;2.328;2022-12-18T05:15:35;-4.10;99.90
70550;DHT22;58101;48.658;2.328;2022-12-18T05:18:01;-4.10;99.90
70550;DHT22;58101;48.658;2.328;2022-12-18T05:20:27;-4.20;99.90
70550;DHT22;58101;48.658;2.328;2022-12-18T05:22:53;-4.20;99.90
70550;DHT22;58101;48.658;2.328;2022-12-18T05:25:20;-4.20;99.90
70550;DHT22;58101;48.658;2.328;2022-12-18T05:27:46;-4.20;99.90
70550;DHT22;58101;48.658;2.328;2022-12-18T05:30:15;-4.20;99.90
70550;DHT22;58101;48.658;2.328;2022-12-18T05:32:41;-4.20;99.90
70550;DHT22;58101;48.658;2.328;2022-12-18T05:35:09;-4.20;99.90
70550;DHT22;58101;48.658;2.328;2022-12-18T05:37:35;-4.20;99.90
70550;DHT22;58101;48.658;2.328;2022-12-18T05:40:02;-4.20;99.90
70550;DHT22;58101;48.658;2.328;2022-12-18T05:42:28;-4.20;99.90
70550;DHT22;58101;48.658;2.328;2022-12-18T05:44:53;-4.20;99.90
70550;DHT22;58101;48.658;2.328;2022-12-18T05:47:19;-4.20;99.90
70550;DHT22;58101;48.658;2.328;2022-12-18T05:49:45;-4.20;99.90
70550;DHT22;58101;48.658;2.328;2022-12-18T05:52:11;-4.20;99.90
70550;DHT22;58101;48.658;2.328;2022-12-18T05:54:36;-4.10;99.90
70550;DHT22;58101;48.658;2.328;2022-12-18T05:57:02;-4.10;99.90
70550;DHT22;58101;48.658;2.328;2022-12-18T05:59:28;-4.10;99.90
70550;DHT22;58101;48.658;2.328;2022-12-18T06:01:53;-4.10;99.90
70550;DHT22;58101;48.658;2.328;2022-12-18T06:04:19;-4.10;99.90
70550;DHT22;58101;48.658;2.328;2022-12-18T06:06:45;-4.10;99.90
70550;DHT22;58101;48.658;2.328;2022-12-18T06:09:10;-4.10;99.90
70550;DHT22;58101;48.658;2.328;2022-12-18T06:11:37;-4.10;99.90
70550;DHT22;58101;48.658;2.328;2022-12-18T06:14:04;-4.10;99.90
70550;DHT22;58101;48.658;2.328;2022-12-18T06:16:33;-4.10;99.90
70550;DHT22;58101;48.658;2.328;2022-12-18T06:19:02;-4.10;99.90
70550;DHT22;58101;48.658;2.328;2022-12-18T06:21:29;-4.10;99.90
70550;DHT22;58101;48.658;2.328;2022-12-18T06:23:55;-4.00;99.90
70550;DHT22;58101;48.658;2.328;2022-12-18T06:26:21;-4.00;99.90
70550;DHT22;58101;48.658;2.328;2022-12-18T06:28:46;-4.00;99.90
70550;DHT22;58101;48.658;2.328;2022-12-18T06:31:12;-4.00;99.90
70550;DHT22;58101;48.658;2.328;2022-12-18T06:33:38;-4.00;99.90
70550;DHT22;58101;48.658;2.328;2022-12-18T06:36:06;-4.00;99.90
70550;DHT22;58101;48.658;2.328;2022-12-18T06:38:35;-4.00;99.90
70550;DHT22;58101;48.658;2.328;2022-12-18T06:41:02;-4.00;99.90
70550;DHT22;58101;48.658;2.328;2022-12-18T06:43:31;-4.00;99.90
70550;DHT22;58101;48.658;2.328;2022-12-18T06:46:00;-4.00;99.90
70550;DHT22;58101;48.658;2.328;2022-12-18T06:48:26;-4.00;99.90
70550;DHT22;58101;48.658;2.328;2022-12-18T06:50:52;-4.00;99.90
70550;DHT22;58101;48.658;2.328;2022-12-18T06:53:18;-4.00;99.90
70550;DHT22;58101;48.658;2.328;2022-12-18T06:55:44;-4.00;99.90
70550;DHT22;58101;48.658;2.328;2022-12-18T06:58:09;-4.00;99.90
70550;DHT22;58101;48.658;2.328;2022-12-18T07:00:35;-4.10;99.90
70550;DHT22;58101;48.658;2.328;2022-12-18T07:03:01;-4.10;99.90
70550;DHT22;58101;48.658;2.328;2022-12-18T07:05:27;-4.20;99.90
70550;DHT22;58101;48.658;2.328;2022-12-18T07:07:52;-4.20;99.90
70550;DHT22;58101;48.658;2.328;2022-12-18T07:10:18;-4.20;99.90
70550;DHT22;58101;48.658;2.328;2022-12-18T07:12:44;-4.20;99.90
70550;DHT22;58101;48.658;2.328;2022-12-18T07:15:10;-4.20;99.90
70550;DHT22;58101;48.658;2.328;2022-12-18T07:17:35;-4.20;99.90
70550;DHT22;58101;48.658;2.328;2022-12-18T07:20:01;-4.20;99.90
70550;DHT22;58101;48.658;2.328;2022-12-18T07:22:27;-4.20;99.90
70550;DHT22;58101;48.658;2.328;2022-12-18T07:24:52;-4.10;99.90
70550;DHT22;58101;48.658;2.328;2022-12-18T07:27:18;-4.20;99.90
70550;DHT22;58101;48.658;2.328;2022-12-18T07:29:44;-4.20;99.90
70550;DHT22;58101;48.658;2.328;2022-12-18T07:32:09;-4.10;99.90
70550;DHT22;58101;48.658;2.328;2022-12-18T07:34:35;-4.10;99.90
70550;DHT22;58101;48.658;2.328;2022-12-18T07:37:01;-4.10;99.90
70550;DHT22;58101;48.658;2.328;2022-12-18T07:39:27;-4.10;99.90
70550;DHT22;58101;48.658;2.328;2022-12-18T07:41:52;-4.20;99.90
70550;DHT22;58101;48.658;2.328;2022-12-18T07:44:37;-4.20;99.90
70550;DHT22;58101;48.658;2.328;2022-12-18T07:47:03;-4.20;99.90
70550;DHT22;58101;48.658;2.328;2022-12-18T07:49:28;-4.10;99.90
70550;DHT22;58101;48.658;2.328;2022-12-18T07:51:57;-4.10;99.90
70550;DHT22;58101;48.658;2.328;2022-12-18T07:54:24;-4.10;99.90
70550;DHT22;58101;48.658;2.328;2022-12-18T07:56:50;-4.00;99.90
70550;DHT22;58101;48.658;2.328;2022-12-18T07:59:16;-4.00;99.90
70550;DHT22;58101;48.658;2.328;2022-12-18T08:01:42;-4.00;99.90
70550;DHT22;58101;48.658;2.328;2022-12-18T08:04:08;-3.90;99.90
70550;DHT22;58101;48.658;2.328;2022-12-18T08:06:34;-3.90;99.90
70550;DHT22;58101;48.658;2.328;2022-12-18T08:08:59;-3.90;99.90
70550;DHT22;58101;48.658;2.328;2022-12-18T08:11:27;-3.80;99.90
70550;DHT22;58101;48.658;2.328;2022-12-18T08:13:54;-3.80;99.90
70550;DHT22;58101;48.658;2.328;2022-12-18T08:16:20;-3.80;99.90
70550;DHT22;58101;48.658;2.328;2022-12-18T08:18:46;-3.80;99.90
70550;DHT22;58101;48.658;2.328;2022-12-18T08:21:20;-3.80;99.90
70550;DHT22;58101;48.658;2.328;2022-12-18T08:23:49;-3.80;99.90
70550;DHT22;58101;48.658;2.328;2022-12-18T08:26:15;-3.80;99.90
70550;DHT22;58101;48.658;2.328;2022-12-18T08:28:41;-3.70;99.90
70550;DHT22;58101;48.658;2.328;2022-12-18T08:31:07;-3.50;99.90
70550;DHT22;58101;48.658;2.328;2022-12-18T08:33:34;-3.60;99.90
70550;DHT22;58101;48.658;2.328;2022-12-18T08:36:01;-3.60;99.90
70550;DHT22;58101;48.658;2.328;2022-12-18T08:38:27;-3.60;99.90
70550;DHT22;58101;48.658;2.328;2022-12-18T08:41:04;-3.50;99.90
70550;DHT22;58101;48.658;2.328;2022-12-18T08:43:30;-3.40;99.90
70550;DHT22;58101;48.658;2.328;2022-12-18T08:46:14;-3.30;99.90
70550;DHT22;58101;48.658;2.328;2022-12-18T08:48:39;-3.30;99.90
70550;DHT22;58101;48.658;2.328;2022-12-18T08:51:05;-3.20;99.90
70550;DHT22;58101;48.658;2.328;2022-12-18T08:53:31;-3.10;99.90
70550;DHT22;58101;48.658;2.328;2022-12-18T08:55:57;-3.10;99.90
70550;DHT22;58101;48.658;2.328;2022-12-18T08:58:23;-3.00;99.90
70550;DHT22;58101;48.658;2.328;2022-12-18T09:00:49;-2.90;99.90
70550;DHT22;58101;48.658;2.328;2022-12-18T09:03:16;-2.70;99.90
70550;DHT22;58101;48.658;2.328;2022-12-18T09:05:42;-2.60;99.90
70550;DHT22;58101;48.658;2.328;2022-12-18T09:08:08;-2.60;99.90
70550;DHT22;58101;48.658;2.328;2022-12-18T09:10:34;-2.50;99.90
70550;DHT22;58101;48.658;2.328;2022-12-18T09:13:06;-2.30;99.90
70550;DHT22;58101;48.658;2.328;2022-12-18T09:15:31;-2.40;99.90
70550;DHT22;58101;48.658;2.328;2022-12-18T09:17:57;-2.40;99.90
70550;DHT22;58101;48.658;2.328;2022-12-18T09:20:23;-2.30;99.90
70550;DHT22;58101;48.658;2.328;2022-12-18T09:22:49;-2.30;99.90
70550;DHT22;58101;48.658;2.328;2022-12-18T09:25:15;-2.30;99.90
70550;DHT22;58101;48.658;2.328;2022-12-18T09:27:41;-2.40;99.90
70550;DHT22;58101;48.658;2.328;2022-12-18T09:30:07;-2.40;99.90
70550;DHT22;58101;48.658;2.328;2022-12-18T09:32:33;-2.40;99.90
70550;DHT22;58101;48.658;2.328;2022-12-18T09:34:58;-2.40;99.90
70550;DHT22;58101;48.658;2.328;2022-12-18T09:37:24;-2.40;99.90
70550;DHT22;58101;48.658;2.328;2022-12-18T09:39:50;-2.40;99.90
70550;DHT22;58101;48.658;2.328;2022-12-18T09:42:21;-2.30;99.90
70550;DHT22;58101;48.658;2.328;2022-12-18T09:44:56;-2.30;99.90
70550;DHT22;58101;48.658;2.328;2022-12-18T09:47:31;-2.20;99.90
70550;DHT22;58101;48.658;2.328;2022-12-18T09:50:07;-2.20;99.90
70550;DHT22;58101;48.658;2.328;2022-12-18T09:52:44;-2.20;99.90
70550;DHT22;58101;48.658;2.328;2022-12-18T09:55:25;-2.10;99.90
70550;DHT22;58101;48.658;2.328;2022-12-18T09:57:59;-2.10;99.90
70550;DHT22;58101;48.658;2.328;2022-12-18T10:00:26;-2.00;99.90
70550;DHT22;58101;48.658;2.328;2022-12-18T10:03:08;-1.90;99.90
70550;DHT22;58101;48.658;2.328;2022-12-18T10:11:40;-1.70;99.90
70550;DHT22;58101;48.658;2.328;2022-12-18T10:14:05;-1.60;99.90
70550;DHT22;58101;48.658;2.328;2022-12-18T10:17:13;-1.50;99.90
70550;DHT22;58101;48.658;2.328;2022-12-18T10:27:42;-0.90;99.20
70550;DHT22;58101;48.658;2.328;2022-12-18T10:30:14;-0.80;98.80
70550;DHT22;58101;48.658;2.328;2022-12-18T10:32:40;-0.80;99.90
70550;DHT22;58101;48.658;2.328;2022-12-18T10:35:18;-0.80;99.10
70550;DHT22;58101;48.658;2.328;2022-12-18T10:40:47;-0.70;98.90
70550;DHT22;58101;48.658;2.328;2022-12-18T10:43:15;-0.60;98.80
70550;DHT22;58101;48.658;2.328;2022-12-18T10:45:42;-0.50;98.80
70550;DHT22;58101;48.658;2.328;2022-12-18T10:48:22;-0.60;98.70
70550;DHT22;58101;48.658;2.328;2022-12-18T10:50:50;-0.50;98.00
70550;DHT22;58101;48.658;2.328;2022-12-18T10:53:26;-0.40;98.70
70550;DHT22;58101;48.658;2.328;2022-12-18T10:55:54;-0.20;98.00
70550;DHT22;58101;48.658;2.328;2022-12-18T10:58:36;-0.20;97.20
70550;DHT22;58101;48.658;2.328;2022-12-18T11:01:03;-0.20;98.00
70550;DHT22;58101;48.658;2.328;2022-12-18T11:03:33;-0.10;97.60
70550;DHT22;58101;48.658;2.328;2022-12-18T11:06:11;0.00;97.60
70550;DHT22;58101;48.658;2.328;2022-12-18T11:08:37;0.20;96.70
70550;DHT22;58101;48.658;2.328;2022-12-18T11:11:07;0.30;95.90
70550;DHT22;58101;48.658;2.328;2022-12-18T11:13:33;0.30;96.50
70550;DHT22;58101;48.658;2.328;2022-12-18T11:15:59;0.40;96.10
70550;DHT22;58101;48.658;2.328;2022-12-18T11:18:34;0.30;94.90
70550;DHT22;58101;48.658;2.328;2022-12-18T11:21:09;0.30;95.30
70550;DHT22;58101;48.658;2.328;2022-12-18T11:23:36;0.30;95.80
70550;DHT22;58101;48.658;2.328;2022-12-18T11:26:04;0.00;95.90
70550;DHT22;58101;48.658;2.328;2022-12-18T11:31:28;-0.20;97.10
70550;DHT22;58101;48.658;2.328;2022-12-18T11:33:56;-0.30;98.60
70550;DHT22;58101;48.658;2.328;2022-12-18T11:36:23;-0.30;99.60
70550;DHT22;58101;48.658;2.328;2022-12-18T11:38:52;-0.30;99.70
70550;DHT22;58101;48.658;2.328;2022-12-18T11:41:43;-0.20;99.30
70550;DHT22;58101;48.658;2.328;2022-12-18T11:47:30;-0.40;99.90
70550;DHT22;58101;48.658;2.328;2022-12-18T11:50:08;-0.40;99.90
70550;DHT22;58101;48.658;2.328;2022-12-18T11:52:39;-0.30;99.90
70550;DHT22;58101;48.658;2.328;2022-12-18T11:55:29;-0.30;99.90
70550;DHT22;58101;48.658;2.328;2022-12-18T12:00:50;-0.10;99.90
70550;DHT22;58101;48.658;2.328;2022-12-18T12:17:02;-0.10;99.90
70550;DHT22;58101;48.658;2.328;2022-12-18T12:30:35;0.10;99.90
70550;DHT22;58101;48.658;2.328;2022-12-18T12:38:15;0.60;99.90
70550;DHT22;58101;48.658;2.328;2022-12-18T12:41:08;0.60;99.70
70550;DHT22;58101;48.658;2.328;2022-12-18T12:43:56;0.70;99.80
70550;DHT22;58101;48.658;2.328;2022-12-18T12:46:22;0.70;99.50
70550;DHT22;58101;48.658;2.328;2022-12-18T12:48:50;0.80;99.90
70550;DHT22;58101;48.658;2.328;2022-12-18T12:51:41;0.80;99.80
70550;DHT22;58101;48.658;2.328;2022-12-18T12:54:17;0.80;99.00
70550;DHT22;58101;48.658;2.328;2022-12-18T12:56:56;0.90;99.60
70550;DHT22;58101;48.658;2.328;2022-12-18T13:02:44;0.90;98.60
70550;DHT22;58101;48.658;2.328;2022-12-18T13:05:40;0.80;99.00
70550;DHT22;58101;48.658;2.328;2022-12-18T13:08:12;0.80;99.90
70550;DHT22;58101;48.658;2.328;2022-12-18T13:10:46;0.80;99.90
70550;DHT22;58101;48.658;2.328;2022-12-18T13:13:14;0.80;99.90
70550;DHT22;58101;48.658;2.328;2022-12-18T13:15:48;0.80;99.90
70550;DHT22;58101;48.658;2.328;2022-12-18T13:18:22;0.80;99.90
70550;DHT22;58101;48.658;2.328;2022-12-18T13:23:26;0.80;99.90
70550;DHT22;58101;48.658;2.328;2022-12-18T13:31:13;0.80;99.90
70550;DHT22;58101;48.658;2.328;2022-12-18T13:38:47;0.80;99.90
70550;DHT22;58101;48.658;2.328;2022-12-18T13:41:33;0.90;99.90
70550;DHT22;58101;48.658;2.328;2022-12-18T13:44:24;0.90;99.90
70550;DHT22;58101;48.658;2.328;2022-12-18T13:46:51;0.90;99.90
70550;DHT22;58101;48.658;2.328;2022-12-18T13:51:53;0.90;99.90
70550;DHT22;58101;48.658;2.328;2022-12-18T13:54:35;1.00;99.90
70550;DHT22;58101;48.658;2.328;2022-12-18T13:57:03;1.00;99.90
70550;DHT22;58101;48.658;2.328;2022-12-18T13:59:34;1.00;99.90
70550;DHT22;58101;48.658;2.328;2022-12-18T14:02:05;1.00;99.90
70550;DHT22;58101;48.658;2.328;2022-12-18T14:04:35;1.00;99.90
70550;DHT22;58101;48.658;2.328;2022-12-18T14:07:12;1.10;99.90
70550;DHT22;58101;48.658;2.328;2022-12-18T14:09:44;1.10;99.90
70550;DHT22;58101;48.658;2.328;2022-12-18T14:12:24;1.10;99.90
70550;DHT22;58101;48.658;2.328;2022-12-18T14:15:34;1.10;99.90
70550;DHT22;58101;48.658;2.328;2022-12-18T14:20:29;1.20;99.90
70550;DHT22;58101;48.658;2.328;2022-12-18T14:22:56;1.20;99.90
70550;DHT22;58101;48.658;2.328;2022-12-18T14:25:23;1.30;99.90
70550;DHT22;58101;48.658;2.328;2022-12-18T14:30:34;1.40;99.90
70550;DHT22;58101;48.658;2.328;2022-12-18T14:35:31;1.40;99.90
70550;DHT22;58101;48.658;2.328;2022-12-18T14:40:42;1.40;99.90
70550;DHT22;58101;48.658;2.328;2022-12-18T14:43:11;1.40;99.90
70550;DHT22;58101;48.658;2.328;2022-12-18T14:48:08;1.50;99.90
70550;DHT22;58101;48.658;2.328;2022-12-18T14:50:35;1.50;99.90
70550;DHT22;58101;48.658;2.328;2022-12-18T14:53:00;1.50;99.90
70550;DHT22;58101;48.658;2.328;2022-12-18T14:55:26;1.50;99.90
70550;DHT22;58101;48.658;2.328;2022-12-18T14:57:54;1.50;99.90
70550;DHT22;58101;48.658;2.328;2022-12-18T15:00:23;1.50;99.90
70550;DHT22;58101;48.658;2.328;2022-12-18T15:02:58;1.50;99.90
70550;DHT22;58101;48.658;2.328;2022-12-18T15:05:28;1.50;99.90
70550;DHT22;58101;48.658;2.328;2022-12-18T15:07:57;1.50;99.90
70550;DHT22;58101;48.658;2.328;2022-12-18T15:10:31;1.60;99.90
70550;DHT22;58101;48.658;2.328;2022-12-18T15:20:54;1.60;99.90
70550;DHT22;58101;48.658;2.328;2022-12-18T15:31:20;1.60;99.90
70550;DHT22;58101;48.658;2.328;2022-12-18T15:36:17;1.60;99.90
70550;DHT22;58101;48.658;2.328;2022-12-18T15:38:50;1.60;99.90
70550;DHT22;58101;48.658;2.328;2022-12-18T15:41:18;1.60;99.90
70550;DHT22;58101;48.658;2.328;2022-12-18T15:43:45;1.60;99.90
70550;DHT22;58101;48.658;2.328;2022-12-18T15:46:14;1.60;99.90
70550;DHT22;58101;48.658;2.328;2022-12-18T15:48:45;1.60;99.90
70550;DHT22;58101;48.658;2.328;2022-12-18T15:51:19;1.50;99.90
70550;DHT22;58101;48.658;2.328;2022-12-18T15:53:47;1.60;99.90
70550;DHT22;58101;48.658;2.328;2022-12-18T15:56:15;1.50;99.90
70550;DHT22;58101;48.658;2.328;2022-12-18T15:59:00;1.60;99.90
70550;DHT22;58101;48.658;2.328;2022-12-18T16:01:28;1.60;99.90
70550;DHT22;58101;48.658;2.328;2022-12-18T16:03:54;1.60;99.90
70550;DHT22;58101;48.658;2.328;2022-12-18T16:06:21;1.70;99.90
70550;DHT22;58101;48.658;2.328;2022-12-18T16:08:47;1.60;99.90
70550;DHT22;58101;48.658;2.328;2022-12-18T16:11:29;1.70;99.90
70550;DHT22;58101;48.658;2.328;2022-12-18T16:14:08;1.60;99.90
70550;DHT22;58101;48.658;2.328;2022-12-18T16:16:36;1.60;99.90
70550;DHT22;58101;48.658;2.328;2022-12-18T16:19:02;1.60;99.90
70550;DHT22;58101;48.658;2.328;2022-12-18T16:21:28;1.60;99.90
70550;DHT22;58101;48.658;2.328;2022-12-18T16:23:53;1.70;99.90
70550;DHT22;58101;48.658;2.328;2022-12-18T16:26:19;1.60;99.90
70550;DHT22;58101;48.658;2.328;2022-12-18T16:28:45;1.60;99.90
70550;DHT22;58101;48.658;2.328;2022-12-18T16:31:10;1.60;99.90
70550;DHT22;58101;48.658;2.328;2022-12-18T16:33:36;1.60;99.90
70550;DHT22;58101;48.658;2.328;2022-12-18T16:36:01;1.60;99.90
70550;DHT22;58101;48.658;2.328;2022-12-18T16:38:27;1.50;99.90
70550;DHT22;58101;48.658;2.328;2022-12-18T16:40:53;1.50;99.90
70550;DHT22;58101;48.658;2.328;2022-12-18T16:43:37;1.50;99.90
70550;DHT22;58101;48.658;2.328;2022-12-18T16:46:03;1.60;99.90
70550;DHT22;58101;48.658;2.328;2022-12-18T16:48:28;1.50;99.90
70550;DHT22;58101;48.658;2.328;2022-12-18T16:51:04;1.50;99.90
70550;DHT22;58101;48.658;2.328;2022-12-18T16:53:31;1.50;99.90
70550;DHT22;58101;48.658;2.328;2022-12-18T16:55:57;1.50;99.90
70550;DHT22;58101;48.658;2.328;2022-12-18T16:58:23;1.50;99.90
70550;DHT22;58101;48.658;2.328;2022-12-18T17:00:49;1.50;99.90
70550;DHT22;58101;48.658;2.328;2022-12-18T17:03:14;1.50;99.90
70550;DHT22;58101;48.658;2.328;2022-12-18T17:05:40;1.50;99.90
70550;DHT22;58101;48.658;2.328;2022-12-18T17:08:06;1.50;99.90
70550;DHT22;58101;48.658;2.328;2022-12-18T17:10:34;1.50;99.90
70550;DHT22;58101;48.658;2.328;2022-12-18T17:13:00;1.50;99.90
70550;DHT22;58101;48.658;2.328;2022-12-18T17:15:25;1.50;99.90
70550;DHT22;58101;48.658;2.328;2022-12-18T17:17:51;1.60;99.90
70550;DHT22;58101;48.658;2.328;2022-12-18T17:20:17;1.60;99.90
70550;DHT22;58101;48.658;2.328;2022-12-18T17:22:42;1.60;99.90
70550;DHT22;58101;48.658;2.328;2022-12-18T17:25:08;1.70;99.90
70550;DHT22;58101;48.658;2.328;2022-12-18T17:27:34;1.70;99.90
70550;DHT22;58101;48.658;2.328;2022-12-18T17:29:59;1.70;99.90
70550;DHT22;58101;48.658;2.328;2022-12-18T17:32:25;1.80;99.90
70550;DHT22;58101;48.658;2.328;2022-12-18T17:34:50;1.80;99.90
70550;DHT22;58101;48.658;2.328;2022-12-18T17:37:16;1.80;99.90
70550;DHT22;58101;48.658;2.328;2022-12-18T17:39:42;1.90;99.90
70550;DHT22;58101;48.658;2.328;2022-12-18T17:42:08;1.90;99.90
70550;DHT22;58101;48.658;2.328;2022-12-18T17:44:36;1.90;99.90
70550;DHT22;58101;48.658;2.328;2022-12-18T17:47:02;1.90;99.90
70550;DHT22;58101;48.658;2.328;2022-12-18T17:49:28;1.90;99.90
70550;DHT22;58101;48.658;2.328;2022-12-18T17:51:53;2.00;99.90
70550;DHT22;58101;48.658;2.328;2022-12-18T17:54:19;2.00;99.90
70550;DHT22;58101;48.658;2.328;2022-12-18T17:56:45;2.00;99.90
70550;DHT22;58101;48.658;2.328;2022-12-18T17:59:11;2.00;99.90
70550;DHT22;58101;48.658;2.328;2022-12-18T18:01:37;2.10;99.90